createdAt,value
2015-11-18T00:00:49.620Z,991.3
2015-11-18T00:01:49.560Z,991.3
2015-11-18T00:02:49.516Z,991.4
2015-11-18T00:03:49.457Z,991.3
2015-11-18T00:04:49.412Z,991.4
2015-11-18T00:05:49.353Z,991.4
2015-11-18T00:06:49.293Z,991.3
2015-11-18T00:07:49.265Z,991.3
2015-11-18T00:08:49.049Z,991.2
2015-11-18T00:09:49.145Z,991.3
2015-11-18T00:10:49.101Z,991.2
2015-11-18T00:11:49.041Z,991.1
2015-11-18T00:12:49.013Z,991.1
2015-11-18T00:13:49.141Z,991.2
2015-11-18T00:14:48.878Z,991
2015-11-18T00:15:48.834Z,991.1
2015-11-18T00:16:48.789Z,991.1
2015-11-18T00:17:48.745Z,991
2015-11-18T00:18:48.698Z,991
2015-11-18T00:19:48.623Z,990.9
2015-11-18T00:20:48.626Z,991
2015-11-18T00:21:48.535Z,991
2015-11-18T00:22:48.490Z,990.9
2015-11-18T00:23:48.431Z,991
2015-11-18T00:24:48.370Z,990.9
2015-11-18T00:25:48.311Z,990.7
2015-11-18T00:26:48.267Z,990.8
2015-11-18T00:27:48.223Z,990.8
2015-11-18T00:28:48.179Z,990.7
2015-11-18T00:29:48.322Z,990.8
2015-11-18T00:30:48.294Z,990.8
2015-11-18T00:31:48.015Z,990.6
2015-11-18T00:32:47.971Z,990.7
2015-11-18T00:33:47.911Z,990.7
2015-11-18T00:34:47.867Z,990.5
2015-11-18T00:35:47.808Z,990.8
2015-11-18T00:36:47.748Z,990.5
2015-11-18T00:37:47.907Z,990.4
2015-11-18T00:38:47.659Z,990.5
2015-11-18T00:39:47.615Z,990.6
2015-11-18T00:40:47.525Z,990.6
2015-11-18T00:41:47.481Z,990.6
2015-11-18T00:42:47.436Z,990.5
2015-11-18T00:43:47.392Z,990.8
2015-11-18T00:44:47.348Z,990.6
2015-11-18T00:45:47.273Z,990.6
2015-11-18T00:46:47.228Z,990.8
2015-11-18T00:47:47.185Z,990.6
2015-11-18T00:48:47.125Z,990.6
2015-11-18T00:49:47.081Z,990.7
2015-11-18T00:50:47.036Z,990.6
2015-11-18T00:51:46.962Z,990.7
2015-11-18T00:52:46.917Z,990.4
2015-11-18T00:53:46.858Z,990.7
2015-11-18T00:54:46.813Z,990.5
2015-11-18T00:55:46.784Z,990.7
2015-11-18T00:56:46.706Z,990.8
2015-11-18T00:57:46.647Z,990.5
2015-11-18T00:58:46.603Z,990.8
2015-11-18T00:59:46.558Z,990.5
2015-11-18T01:00:46.514Z,990.6
2015-11-18T01:01:46.455Z,990.5
2015-11-18T01:02:46.395Z,990.5
2015-11-18T01:03:46.335Z,990.5
2015-11-18T01:04:46.306Z,990.6
2015-11-18T01:05:46.263Z,990.8
2015-11-18T01:06:46.436Z,990.6
2015-11-18T01:07:46.159Z,990.6
2015-11-18T01:08:46.083Z,990.6
2015-11-18T01:09:46.039Z,990.6
2015-11-18T01:10:45.995Z,990.6
2015-11-18T01:11:45.920Z,990.8
2015-11-18T01:12:45.875Z,990.7
2015-11-18T01:13:45.831Z,990.8
2015-11-18T01:14:45.788Z,990.8
2015-11-18T01:15:45.743Z,990.7
2015-11-18T01:16:45.699Z,990.6
2015-11-18T01:17:45.624Z,990.9
2015-11-18T01:18:45.580Z,990.7
2015-11-18T01:19:45.519Z,990.6
2015-11-18T01:20:45.476Z,990.6
2015-11-18T01:21:45.432Z,990.8
2015-11-18T01:23:03.856Z,990.6
2015-11-18T01:23:45.344Z,990.6
2015-11-18T01:24:45.268Z,990.6
2015-11-18T01:25:45.224Z,990.8
2015-11-18T01:26:45.352Z,990.7
2015-11-18T01:27:45.104Z,990.7
2015-11-18T01:28:45.060Z,990.7
2015-11-18T01:29:45.016Z,990.8
2015-11-18T01:30:44.972Z,990.7
2015-11-18T01:31:44.913Z,990.8
2015-11-18T01:32:44.837Z,990.7
2015-11-18T01:33:44.793Z,990.7
2015-11-18T01:34:44.749Z,990.8
2015-11-18T01:35:44.720Z,990.8
2015-11-18T01:36:44.626Z,990.8
2015-11-18T01:37:44.582Z,990.7
2015-11-18T01:38:44.538Z,991
2015-11-18T01:39:44.479Z,990.7
2015-11-18T01:40:44.435Z,990.9
2015-11-18T01:41:44.610Z,990.7
2015-11-18T01:42:44.315Z,990.8
2015-11-18T01:43:44.270Z,990.9
2015-11-18T01:44:44.227Z,990.7
2015-11-18T01:45:44.166Z,990.6
2015-11-18T01:46:43.982Z,990.8
2015-11-18T01:47:44.063Z,990.7
2015-11-18T01:48:44.018Z,990.7
2015-11-18T01:49:43.943Z,990.6
2015-11-18T01:50:43.915Z,990.6
2015-11-18T01:51:43.855Z,990.7
2015-11-18T01:52:43.811Z,990.7
2015-11-18T01:53:43.751Z,990.7
2015-11-18T01:54:43.691Z,990.9
2015-11-18T01:55:43.648Z,990.6
2015-11-18T01:56:43.604Z,990.7
2015-11-18T01:57:43.529Z,990.6
2015-11-18T01:58:43.485Z,990.6
2015-11-18T01:59:43.440Z,990.9
2015-11-18T02:00:43.380Z,990.4
2015-11-18T02:01:43.336Z,990.8
2015-11-18T02:02:43.276Z,990.8
2015-11-18T02:03:43.216Z,990.9
2015-11-18T02:04:43.157Z,990.8
2015-11-18T02:05:43.129Z,990.8
2015-11-18T02:06:43.069Z,990.8
2015-11-18T02:07:43.056Z,991
2015-11-18T02:08:43.168Z,990.8
2015-11-18T02:09:42.905Z,990.9
2015-11-18T02:10:42.845Z,990.8
2015-11-18T02:11:42.082Z,990.9
2015-11-18T02:12:42.773Z,990.8
2015-11-18T02:13:42.698Z,990.9
2015-11-18T02:14:41.901Z,991.1
2015-11-18T02:15:42.590Z,990.8
2015-11-18T02:16:42.546Z,990.7
2015-11-18T02:17:42.501Z,990.8
2015-11-18T02:18:42.443Z,990.9
2015-11-18T02:19:42.398Z,991
2015-11-18T02:20:42.339Z,990.8
2015-11-18T02:21:42.295Z,990.8
2015-11-18T02:22:42.235Z,990.8
2015-11-18T02:23:42.176Z,990.8
2015-11-18T02:24:42.131Z,990.8
2015-11-18T02:25:42.071Z,990.9
2015-11-18T02:26:42.261Z,990.8
2015-11-18T02:27:41.968Z,991
2015-11-18T02:28:41.173Z,990.9
2015-11-18T02:29:41.879Z,991.1
2015-11-18T02:30:41.960Z,991
2015-11-18T02:31:41.009Z,991
2015-11-18T02:32:41.701Z,991.1
2015-11-18T02:33:41.672Z,991.1
2015-11-18T02:34:41.627Z,991.1
2015-11-18T02:35:41.552Z,991.2
2015-11-18T02:36:41.508Z,990.8
2015-11-18T02:37:41.448Z,991.1
2015-11-18T02:38:54.185Z,991.1
2015-11-18T02:39:41.391Z,991
2015-11-18T02:40:41.331Z,991.6
2015-11-18T02:41:41.272Z,991.2
2015-11-18T02:42:41.228Z,991.1
2015-11-18T02:43:41.168Z,991.1
2015-11-18T02:44:41.140Z,991.2
2015-11-18T02:45:41.064Z,991.1
2015-11-18T02:46:41.004Z,991.1
2015-11-18T02:47:40.959Z,991.4
2015-11-18T02:48:40.916Z,991.2
2015-11-18T02:49:40.872Z,991.2
2015-11-18T02:50:40.843Z,991.3
2015-11-18T02:51:40.752Z,991.3
2015-11-18T02:52:40.723Z,991.4
2015-11-18T02:53:40.645Z,991.3
2015-11-18T02:54:40.601Z,991.7
2015-11-18T02:55:40.526Z,991.2
2015-11-18T02:56:40.482Z,991.6
2015-11-18T02:57:40.438Z,991.3
2015-11-18T02:58:40.394Z,991.3
2015-11-18T02:59:39.600Z,991.3
2015-11-18T03:00:40.275Z,991.3
2015-11-18T03:01:39.465Z,991.4
2015-11-18T03:02:40.155Z,991.5
2015-11-18T03:03:40.126Z,991.3
2015-11-18T03:04:40.067Z,991.5
2015-11-18T03:05:40.023Z,991.3
2015-11-18T03:06:39.963Z,991.3
2015-11-18T03:07:39.903Z,991.4
2015-11-18T03:08:39.859Z,991.5
2015-11-18T03:09:39.814Z,991.5
2015-11-18T03:10:39.755Z,991.5
2015-11-18T03:11:39.712Z,991.5
2015-11-18T03:12:39.636Z,991.4
2015-11-18T03:13:39.592Z,991.4
2015-11-18T03:14:39.781Z,991.5
2015-11-18T03:15:39.489Z,991.6
2015-11-18T03:16:39.444Z,991.5
2015-11-18T03:17:39.384Z,991.6
2015-11-18T03:18:39.325Z,991.4
2015-11-18T03:19:39.280Z,991.6
2015-11-18T03:20:39.220Z,991.6
2015-11-18T03:21:39.161Z,991.5
2015-11-18T03:22:39.116Z,991.6
2015-11-18T03:23:39.072Z,991.5
2015-11-18T03:24:39.028Z,991.5
2015-11-18T03:25:38.953Z,991.7
2015-11-18T03:26:38.908Z,991.5
2015-11-18T03:27:38.850Z,991.4
2015-11-18T03:28:38.789Z,991.5
2015-11-18T03:29:38.745Z,991.6
2015-11-18T03:30:38.558Z,991.5
2015-11-18T03:31:38.622Z,991.6
2015-11-18T03:32:38.578Z,991.7
2015-11-18T03:33:38.535Z,991.6
2015-11-18T03:34:38.475Z,991.5
2015-11-18T03:35:38.274Z,991.5
2015-11-18T03:36:38.355Z,991.7
2015-11-18T03:37:38.514Z,991.5
2015-11-18T03:38:38.454Z,991.6
2015-11-18T03:39:38.208Z,991.7
2015-11-18T03:40:38.163Z,991.7
2015-11-18T03:41:38.338Z,991.6
2015-11-18T03:42:38.028Z,991.8
2015-11-18T03:43:37.983Z,991.9
2015-11-18T03:44:37.940Z,991.7
2015-11-18T03:45:37.897Z,991.8
2015-11-18T03:46:37.867Z,991.8
2015-11-18T03:47:37.777Z,992
2015-11-18T03:48:37.717Z,991.9
2015-11-18T03:49:37.672Z,991.9
2015-11-18T03:50:37.628Z,991.9
2015-11-18T03:51:37.569Z,991.9
2015-11-18T03:52:37.509Z,992
2015-11-18T03:53:37.465Z,992.1
2015-11-18T03:54:37.405Z,992
2015-11-18T03:55:37.361Z,992.1
2015-11-18T03:56:37.302Z,992
2015-11-18T03:57:37.241Z,992
2015-11-18T03:58:37.400Z,992.2
2015-11-18T03:59:37.124Z,992.1
2015-11-18T04:00:37.079Z,992.1
2015-11-18T04:01:37.035Z,992.2
2015-11-18T04:02:36.976Z,992.2
2015-11-18T04:03:36.916Z,992.3
2015-11-18T04:04:36.872Z,992.2
2015-11-18T04:05:36.812Z,992.3
2015-11-18T04:06:36.768Z,992.5
2015-11-18T04:07:36.709Z,992.4
2015-11-18T04:08:35.820Z,992.5
2015-11-18T04:09:36.604Z,992.3
2015-11-18T04:10:36.542Z,992.5
2015-11-18T04:11:36.514Z,992.2
2015-11-18T04:12:36.438Z,992.3
2015-11-18T04:13:36.378Z,992.5
2015-11-18T04:14:36.334Z,992.2
2015-11-18T04:15:36.290Z,992.3
2015-11-18T04:16:36.230Z,992.3
2015-11-18T04:17:36.171Z,992.3
2015-11-18T04:18:36.126Z,992.3
2015-11-18T04:19:36.067Z,992.3
2015-11-18T04:20:36.023Z,992.4
2015-11-18T04:21:35.978Z,992.5
2015-11-18T04:22:35.153Z,992.2
2015-11-18T04:23:35.859Z,992.3
2015-11-18T04:24:36.034Z,992.3
2015-11-18T04:25:35.755Z,992.4
2015-11-18T04:26:35.711Z,992.6
2015-11-18T04:27:35.651Z,992.5
2015-11-18T04:28:35.592Z,992.5
2015-11-18T04:29:35.782Z,992.6
2015-11-18T04:30:35.487Z,992.4
2015-11-18T04:31:35.444Z,992.4
2015-11-18T04:32:35.399Z,992.5
2015-11-18T04:33:35.339Z,992.5
2015-11-18T04:34:35.280Z,992.3
2015-11-18T04:35:35.220Z,992.6
2015-11-18T04:36:35.411Z,992.5
2015-11-18T04:37:35.132Z,992.5
2015-11-18T04:38:35.057Z,992.7
2015-11-18T04:39:35.012Z,992.5
2015-11-18T04:40:34.953Z,992.4
2015-11-18T04:41:34.909Z,992.5
2015-11-18T04:42:34.880Z,992.5
2015-11-18T04:43:34.806Z,992.5
2015-11-18T04:44:34.948Z,992.6
2015-11-18T04:45:34.701Z,992.6
2015-11-18T04:46:34.656Z,992.8
2015-11-18T04:47:34.597Z,992.6
2015-11-18T04:48:34.536Z,992.7
2015-11-18T04:49:34.493Z,992.7
2015-11-18T04:50:34.446Z,992.7
2015-11-18T04:51:34.386Z,992.8
2015-11-18T04:52:34.327Z,992.8
2015-11-18T04:53:34.283Z,992.6
2015-11-18T04:54:34.222Z,992.7
2015-11-18T04:55:34.178Z,992.7
2015-11-18T04:56:34.119Z,992.7
2015-11-18T04:57:34.059Z,992.9
2015-11-18T04:58:33.999Z,992.9
2015-11-18T04:59:33.956Z,992.8
2015-11-18T05:00:34.099Z,993
2015-11-18T05:01:33.867Z,992.9
2015-11-18T05:02:33.792Z,992.9
2015-11-18T05:03:33.748Z,992.9
2015-11-18T05:04:33.688Z,992.9
2015-11-18T05:05:33.675Z,992.9
2015-11-18T05:06:33.599Z,993
2015-11-18T05:07:33.541Z,993.1
2015-11-18T05:08:33.480Z,993.3
2015-11-18T05:09:33.421Z,993.4
2015-11-18T05:10:33.377Z,993.1
2015-11-18T05:11:33.347Z,993.2
2015-11-18T05:12:33.272Z,993.3
2015-11-18T05:13:33.213Z,993
2015-11-18T05:14:33.169Z,993.1
2015-11-18T05:15:33.108Z,993.2
2015-11-18T05:16:33.065Z,993.2
2015-11-18T05:17:33.005Z,993.3
2015-11-18T05:18:33.149Z,993.2
2015-11-18T05:19:32.901Z,993.4
2015-11-18T05:20:32.857Z,993.4
2015-11-18T05:21:32.797Z,993.4
2015-11-18T05:22:32.972Z,993.4
2015-11-18T05:23:32.678Z,993.3
2015-11-18T05:24:32.633Z,993.3
2015-11-18T05:25:32.574Z,993.3
2015-11-18T05:26:32.546Z,993.4
2015-11-18T05:27:32.485Z,993.3
2015-11-18T05:28:32.410Z,993.1
2015-11-18T05:29:32.366Z,993.7
2015-11-18T05:30:32.541Z,993.4
2015-11-18T05:31:32.260Z,993.6
2015-11-18T05:32:32.215Z,993.4
2015-11-18T05:33:32.140Z,993.6
2015-11-18T05:34:32.080Z,993.3
2015-11-18T05:35:32.036Z,993.6
2015-11-18T05:36:31.992Z,993.6
2015-11-18T05:37:31.948Z,993.6
2015-11-18T05:38:31.887Z,993.5
2015-11-18T05:39:31.829Z,993.6
2015-11-18T05:40:31.784Z,993.7
2015-11-18T05:41:31.724Z,993.7
2015-11-18T05:42:31.680Z,993.7
2015-11-18T05:43:31.637Z,993.7
2015-11-18T05:44:31.560Z,993.8
2015-11-18T05:45:31.517Z,993.6
2015-11-18T05:46:31.457Z,993.7
2015-11-18T05:47:31.413Z,993.5
2015-11-18T05:48:30.618Z,993.9
2015-11-18T05:49:31.497Z,993.7
2015-11-18T05:50:31.249Z,994.2
2015-11-18T05:51:31.189Z,993.8
2015-11-18T05:52:31.146Z,993.9
2015-11-18T05:53:31.101Z,993.8
2015-11-18T05:54:31.042Z,994.1
2015-11-18T05:55:30.981Z,994.1
2015-11-18T05:56:30.953Z,993.7
2015-11-18T05:57:30.878Z,994
2015-11-18T05:58:30.834Z,994.5
2015-11-18T05:59:30.774Z,994.1
2015-11-18T06:00:29.965Z,993.8
2015-11-18T06:01:30.701Z,994.2
2015-11-18T06:02:29.845Z,994.1
2015-11-18T06:03:30.551Z,994.1
2015-11-18T06:04:30.710Z,994.3
2015-11-18T06:05:30.447Z,994.2
2015-11-18T06:06:30.387Z,994.4
2015-11-18T06:07:30.343Z,994.3
2015-11-18T06:08:30.298Z,994.6
2015-11-18T06:09:30.239Z,994.3
2015-11-18T06:10:30.382Z,994.5
2015-11-18T06:11:30.132Z,994.6
2015-11-18T06:12:30.072Z,994.5
2015-11-18T06:13:30.217Z,994.6
2015-11-18T06:14:29.969Z,994.5
2015-11-18T06:15:29.909Z,994.5
2015-11-18T06:16:29.865Z,994.5
2015-11-18T06:17:29.806Z,994.7
2015-11-18T06:18:29.762Z,994.4
2015-11-18T06:19:29.733Z,994.7
2015-11-18T06:20:29.642Z,994.5
2015-11-18T06:21:29.784Z,994.6
2015-11-18T06:22:29.537Z,994.6
2015-11-18T06:23:29.494Z,994.6
2015-11-18T06:24:29.465Z,994.7
2015-11-18T06:25:29.609Z,994.8
2015-11-18T06:26:29.330Z,994.7
2015-11-18T06:27:29.473Z,994.8
2015-11-18T06:28:29.226Z,994.8
2015-11-18T06:29:29.182Z,994.9
2015-11-18T06:30:29.123Z,995.1
2015-11-18T06:31:29.063Z,994.8
2015-11-18T06:32:28.284Z,995.1
2015-11-18T06:33:28.975Z,995
2015-11-18T06:34:28.915Z,995.2
2015-11-18T06:35:28.855Z,995
2015-11-18T06:36:28.795Z,995
2015-11-18T06:37:28.736Z,995.2
2015-11-18T06:38:28.692Z,995.2
2015-11-18T06:39:28.664Z,995.1
2015-11-18T06:40:28.587Z,995.3
2015-11-18T06:41:28.528Z,995.2
2015-11-18T06:42:28.484Z,995.1
2015-11-18T06:43:28.425Z,995.2
2015-11-18T06:44:28.380Z,995
2015-11-18T06:45:28.523Z,995.1
2015-11-18T06:46:28.276Z,995.4
2015-11-18T06:47:28.216Z,995.5
2015-11-18T06:48:28.153Z,995.2
2015-11-18T06:49:28.109Z,995.3
2015-11-18T06:50:28.066Z,995.4
2015-11-18T06:51:28.006Z,995.5
2015-11-18T06:52:27.946Z,996.1
2015-11-18T06:53:27.902Z,995.6
2015-11-18T06:54:27.858Z,995.6
2015-11-18T06:55:27.798Z,995.6
2015-11-18T06:56:27.738Z,995.8
2015-11-18T06:57:27.678Z,995.8
2015-11-18T06:58:27.634Z,995.7
2015-11-18T06:59:27.575Z,996.1
2015-11-18T07:00:27.531Z,996
2015-11-18T07:01:27.471Z,995.8
2015-11-18T07:02:27.270Z,996.1
2015-11-18T07:03:27.367Z,996
2015-11-18T07:04:27.307Z,996
2015-11-18T07:05:27.263Z,996.1
2015-11-18T07:06:27.203Z,996.3
2015-11-18T07:07:27.144Z,996.3
2015-11-18T07:08:58.430Z,996.4
2015-11-18T07:09:27.055Z,996.4
2015-11-18T07:10:26.996Z,996.4
2015-11-18T07:11:26.966Z,996.3
2015-11-18T07:12:26.867Z,996.5
2015-11-18T07:13:26.826Z,996.4
2015-11-18T07:14:26.943Z,996.5
2015-11-18T07:15:26.684Z,996.7
2015-11-18T07:16:26.627Z,996.4
2015-11-18T07:17:26.579Z,996.4
2015-11-18T07:18:26.498Z,996.6
2015-11-18T07:19:26.434Z,996.5
2015-11-18T07:20:26.386Z,996.5
2015-11-18T07:21:52.040Z,996.7
2015-11-18T07:22:26.277Z,996.7
2015-11-18T07:23:26.215Z,996.7
2015-11-18T07:24:26.154Z,996.8
2015-11-18T07:25:26.108Z,996.8
2015-11-18T07:26:26.063Z,996.8
2015-11-18T07:27:26.018Z,997
2015-11-18T07:28:25.942Z,996.8
2015-11-18T07:29:25.897Z,996.9
2015-11-18T07:30:26.071Z,996.9
2015-11-18T07:31:25.808Z,996.9
2015-11-18T07:32:25.764Z,996.7
2015-11-18T07:33:25.876Z,997
2015-11-18T07:34:25.626Z,996.7
2015-11-18T07:35:25.768Z,996.9
2015-11-18T07:36:25.521Z,997.1
2015-11-18T07:37:25.461Z,996.9
2015-11-18T07:38:25.401Z,996.8
2015-11-18T07:39:25.357Z,996.9
2015-11-18T07:40:25.297Z,997.1
2015-11-18T07:41:25.253Z,997.3
2015-11-18T07:42:25.208Z,997.2
2015-11-18T07:43:25.149Z,997.1
2015-11-18T07:44:25.089Z,997.3
2015-11-18T07:45:25.045Z,997.2
2015-11-18T07:46:25.220Z,997.2
2015-11-18T07:47:24.957Z,997.1
2015-11-18T07:48:24.882Z,997.2
2015-11-18T07:49:24.839Z,997.3
2015-11-18T07:50:24.778Z,997.3
2015-11-18T07:51:24.953Z,997.4
2015-11-18T07:52:24.675Z,997.5
2015-11-18T07:53:24.630Z,997.4
2015-11-18T07:54:24.570Z,997.5
2015-11-18T07:55:24.511Z,997.5
2015-11-18T07:56:24.450Z,997.6
2015-11-18T07:57:24.391Z,997.5
2015-11-18T07:58:24.363Z,997.6
2015-11-18T07:59:24.303Z,997.7
2015-11-18T08:00:24.477Z,997.5
2015-11-18T08:01:24.183Z,997.6
2015-11-18T08:02:24.140Z,997.6
2015-11-18T08:03:24.267Z,997.7
2015-11-18T08:04:24.020Z,997.6
2015-11-18T08:05:23.976Z,997.8
2015-11-18T08:06:23.932Z,997.7
2015-11-18T08:07:23.872Z,997.9
2015-11-18T08:08:23.672Z,997.8
2015-11-18T08:09:23.752Z,998.1
2015-11-18T08:10:23.708Z,997.9
2015-11-18T08:11:23.646Z,997.9
2015-11-18T08:12:23.601Z,997.9
2015-11-18T08:13:23.557Z,997.9
2015-11-18T08:14:23.483Z,998
2015-11-18T08:15:23.438Z,998.3
2015-11-18T08:16:23.378Z,998.2
2015-11-18T08:17:23.335Z,998
2015-11-18T08:18:23.134Z,998.3
2015-11-18T08:19:23.215Z,998.3
2015-11-18T08:20:23.171Z,998.2
2015-11-18T08:21:23.127Z,998.2
2015-11-18T08:22:23.066Z,998.3
2015-11-18T08:23:23.038Z,998.4
2015-11-18T08:24:22.963Z,998.4
2015-11-18T08:25:22.935Z,998.4
2015-11-18T08:26:22.843Z,998.4
2015-11-18T08:27:22.800Z,998.4
2015-11-18T08:28:22.739Z,998.4
2015-11-18T08:29:22.695Z,998.6
2015-11-18T08:30:22.635Z,998.6
2015-11-18T08:31:22.591Z,998.5
2015-11-18T08:32:22.532Z,998.8
2015-11-18T08:33:22.471Z,998.9
2015-11-18T08:34:22.413Z,998.9
2015-11-18T08:35:22.587Z,998.9
2015-11-18T08:36:22.308Z,999.1
2015-11-18T08:37:22.264Z,999
2015-11-18T08:38:22.220Z,999.2
2015-11-18T08:39:22.145Z,999.1
2015-11-18T08:40:22.335Z,999.2
2015-11-18T08:41:22.244Z,999.3
2015-11-18T08:42:22.013Z,999.2
2015-11-18T08:43:21.952Z,999.2
2015-11-18T08:44:22.080Z,999
2015-11-18T08:45:21.833Z,999.4
2015-11-18T08:46:21.773Z,999.4
2015-11-18T08:47:21.729Z,999.5
2015-11-18T08:48:21.685Z,999.3
2015-11-18T08:49:21.626Z,999.3
2015-11-18T08:50:21.566Z,999.4
2015-11-18T08:51:21.504Z,999.5
2015-11-18T08:52:21.459Z,999.7
2015-11-18T08:53:21.431Z,999.5
2015-11-18T08:54:21.354Z,999.7
2015-11-18T08:55:21.295Z,999.5
2015-11-18T08:56:21.235Z,999.5
2015-11-18T08:57:21.192Z,999.7
2015-11-18T08:58:21.147Z,999.6
2015-11-18T08:59:21.087Z,999.5
2015-11-18T09:00:21.028Z,999.7
2015-11-18T09:01:20.218Z,999.7
2015-11-18T09:02:20.924Z,999.7
2015-11-18T09:03:20.880Z,999.7
2015-11-18T09:04:20.836Z,999.8
2015-11-18T09:05:20.964Z,999.9
2015-11-18T09:06:20.701Z,999.7
2015-11-18T09:07:20.656Z,999.9
2015-11-18T09:08:20.612Z,999.9
2015-11-18T09:09:20.553Z,999.9
2015-11-18T09:10:20.492Z,1000.1
2015-11-18T09:11:20.449Z,1000.1
2015-11-18T09:12:19.623Z,1000.4
2015-11-18T09:13:20.345Z,1000.2
2015-11-18T09:14:20.285Z,1000.3
2015-11-18T09:15:20.226Z,1000.4
2015-11-18T09:16:20.182Z,1000.2
2015-11-18T09:17:20.122Z,1000.3
2015-11-18T09:18:20.296Z,1000.6
2015-11-18T09:19:20.018Z,1000.5
2015-11-18T09:20:19.974Z,1000.4
2015-11-18T09:21:19.899Z,1000.4
2015-11-18T09:22:19.855Z,1000.3
2015-11-18T09:23:19.795Z,1000.5
2015-11-18T09:24:19.751Z,1000.5
2015-11-18T09:25:19.737Z,1000.3
2015-11-18T09:26:19.647Z,1000.5
2015-11-18T09:27:19.586Z,1000.5
2015-11-18T09:28:19.527Z,1000.4
2015-11-18T09:29:19.483Z,1000.6
2015-11-18T09:30:19.420Z,1000.6
2015-11-18T09:31:19.563Z,1000.9
2015-11-18T09:32:19.317Z,1000.7
2015-11-18T09:33:19.257Z,1000.7
2015-11-18T09:34:19.212Z,1000.8
2015-11-18T09:35:19.169Z,1000.9
2015-11-18T09:36:19.108Z,1000.7
2015-11-18T09:37:19.049Z,1000.6
2015-11-18T09:38:18.989Z,1000.9
2015-11-18T09:39:18.945Z,1001
2015-11-18T09:40:18.900Z,1001
2015-11-18T09:41:19.076Z,1001.1
2015-11-18T09:42:19.016Z,1001
2015-11-18T09:43:18.722Z,1001.2
2015-11-18T09:44:18.677Z,1001.4
2015-11-18T09:45:18.665Z,1001.3
2015-11-18T09:46:18.575Z,1001.3
2015-11-18T09:47:18.717Z,1001.4
2015-11-18T09:48:18.469Z,1001.3
2015-11-18T09:49:18.411Z,1001.4
2015-11-18T09:50:18.351Z,1001.3
2015-11-18T09:51:18.323Z,1001.5
2015-11-18T09:52:18.247Z,1001.7
2015-11-18T09:53:18.187Z,1001.5
2015-11-18T09:54:18.142Z,1001.6
2015-11-18T09:55:18.099Z,1001.4
2015-11-18T09:56:18.023Z,1001.7
2015-11-18T09:57:17.980Z,1001.8
2015-11-18T09:58:17.919Z,1001.8
2015-11-18T09:59:17.875Z,1001.8
2015-11-18T10:00:17.831Z,1001.7
2015-11-18T10:01:17.771Z,1001.9
2015-11-18T10:02:17.712Z,1001.7
2015-11-18T10:03:17.667Z,1001.8
2015-11-18T10:04:17.624Z,1001.9
2015-11-18T10:05:17.563Z,1001.9
2015-11-18T10:06:17.504Z,1001.9
2015-11-18T10:07:17.444Z,1002
2015-11-18T10:08:17.400Z,1001.8
2015-11-18T10:09:17.340Z,1002
2015-11-18T10:10:17.280Z,1001.8
2015-11-18T10:11:17.236Z,1001.9
2015-11-18T10:12:17.174Z,1001.8
2015-11-18T10:13:17.130Z,1001.8
2015-11-18T10:14:17.055Z,1001.9
2015-11-18T10:15:17.026Z,1001.9
2015-11-18T10:16:16.982Z,1001.8
2015-11-18T10:17:16.922Z,1001.9
2015-11-18T10:18:16.846Z,1001.9
2015-11-18T10:19:16.802Z,1002
2015-11-18T10:20:16.758Z,1002
2015-11-18T10:21:16.699Z,1002.1
2015-11-18T10:22:16.670Z,1002
2015-11-18T10:23:16.579Z,1002
2015-11-18T10:24:16.535Z,1002
2015-11-18T10:25:16.475Z,1002
2015-11-18T10:26:16.432Z,1002.2
2015-11-18T10:27:16.387Z,1002.1
2015-11-18T10:28:16.312Z,1002.1
2015-11-18T10:29:16.268Z,1002.1
2015-11-18T10:30:16.411Z,1002.1
2015-11-18T10:31:16.163Z,1002.1
2015-11-18T10:32:16.119Z,1002.2
2015-11-18T10:33:16.060Z,1002.1
2015-11-18T10:34:15.999Z,1002.1
2015-11-18T10:35:15.425Z,1002.1
2015-11-18T10:36:15.912Z,1002.3
2015-11-18T10:37:15.837Z,1002.4
2015-11-18T10:38:15.823Z,1002.3
2015-11-18T10:39:15.732Z,1002.2
2015-11-18T10:40:15.689Z,1002.5
2015-11-18T10:41:14.894Z,1002.4
2015-11-18T10:42:15.585Z,1002.5
2015-11-18T10:43:15.524Z,1002.3
2015-11-18T10:44:15.481Z,1002.4
2015-11-18T10:45:14.655Z,1002.3
2015-11-18T10:46:15.362Z,1002.4
2015-11-18T10:47:15.317Z,1002.4
2015-11-18T10:48:15.257Z,1002.5
2015-11-18T10:49:15.197Z,1002.4
2015-11-18T10:50:15.154Z,1002.5
2015-11-18T10:51:15.109Z,1002.6
2015-11-18T10:52:15.034Z,1002.6
2015-11-18T10:53:14.990Z,1002.6
2015-11-18T10:54:14.945Z,1002.7
2015-11-18T10:55:14.133Z,1002.8
2015-11-18T10:56:14.840Z,1002.8
2015-11-18T10:57:14.998Z,1002.8
2015-11-18T10:58:14.719Z,1002.9
2015-11-18T10:59:14.864Z,1002.8
2015-11-18T11:00:13.866Z,1002.8
2015-11-18T11:01:14.572Z,1002.9
2015-11-18T11:02:14.513Z,1002.9
2015-11-18T11:03:14.453Z,1002.9
2015-11-18T11:04:14.393Z,1002.9
2015-11-18T11:05:14.349Z,1002.8
2015-11-18T11:06:14.289Z,1002.9
2015-11-18T11:07:14.246Z,1002.9
2015-11-18T11:08:14.716Z,1002.9
2015-11-18T11:09:16.061Z,1002.9
2015-11-18T11:10:16.430Z,1002.9
2015-11-18T11:11:15.173Z,1003
2015-11-18T11:12:14.190Z,1003
2015-11-18T11:13:13.943Z,1002.9
2015-11-18T11:14:14.070Z,1002.9
2015-11-18T11:15:13.808Z,1002.8
2015-11-18T11:16:13.811Z,1003.1
2015-11-18T11:17:13.736Z,1003.1
2015-11-18T11:18:13.864Z,1003
2015-11-18T11:19:13.617Z,1003
2015-11-18T11:20:13.759Z,1002.9
2015-11-18T11:21:13.512Z,1002.9
2015-11-18T11:22:13.452Z,1003
2015-11-18T11:23:13.408Z,1003
2015-11-18T11:24:13.347Z,1003
2015-11-18T11:25:13.319Z,1003
2015-11-18T11:26:13.244Z,1003
2015-11-18T11:27:13.183Z,1003
2015-11-18T11:28:13.125Z,1003
2015-11-18T11:29:12.236Z,1003
2015-11-18T11:30:13.021Z,1002.9
2015-11-18T11:31:12.961Z,1002.9
2015-11-18T11:32:12.932Z,1002.9
2015-11-18T11:33:12.857Z,1003.1
2015-11-18T11:34:13.016Z,1003
2015-11-18T11:35:12.750Z,1002.9
2015-11-18T11:36:12.706Z,1002.8
2015-11-18T11:37:12.663Z,1003
2015-11-18T11:38:12.618Z,1003.1
2015-11-18T11:39:12.386Z,1003.1
2015-11-18T11:40:12.499Z,1003.1
2015-11-18T11:41:12.424Z,1003
2015-11-18T11:42:12.566Z,1003.1
2015-11-18T11:43:12.335Z,1003.1
2015-11-18T11:44:12.275Z,1003.1
2015-11-18T11:45:12.215Z,1003.3
2015-11-18T11:46:12.390Z,1003.2
2015-11-18T11:47:12.143Z,1003.3
2015-11-18T11:48:12.068Z,1003.2
2015-11-18T11:49:12.008Z,1003.2
2015-11-18T11:50:11.963Z,1003.2
2015-11-18T11:51:12.138Z,1003.1
2015-11-18T11:52:11.844Z,1002.7
2015-11-18T11:53:11.800Z,1002.8
2015-11-18T11:54:11.740Z,1003.1
2015-11-18T11:55:11.680Z,1003.3
2015-11-18T11:56:11.636Z,1003
2015-11-18T11:57:11.577Z,1003.2
2015-11-18T11:58:11.548Z,1003.2
2015-11-18T11:59:11.676Z,1003.2
2015-11-18T12:00:11.429Z,1003.3
2015-11-18T12:01:11.572Z,1003.1
2015-11-18T12:02:11.527Z,1003.2
2015-11-18T12:03:11.297Z,1003.2
2015-11-18T12:04:11.221Z,1003
2015-11-18T12:05:11.380Z,1003
2015-11-18T12:06:11.117Z,1002.7
2015-11-18T12:07:11.057Z,1003
2015-11-18T12:08:11.013Z,1003.3
2015-11-18T12:09:10.969Z,1002.8
2015-11-18T12:10:10.893Z,1003.2
2015-11-18T12:11:10.849Z,1003.2
2015-11-18T12:12:10.790Z,1003.2
2015-11-18T12:13:10.587Z,1003.3
2015-11-18T12:14:10.683Z,1003.5
2015-11-18T12:15:10.623Z,1003.4
2015-11-18T12:16:10.564Z,1003.4
2015-11-18T12:17:10.520Z,1002.7
2015-11-18T12:18:10.475Z,1003.2
2015-11-18T12:19:10.431Z,1002.9
2015-11-18T12:20:10.371Z,1003
2015-11-18T12:21:10.327Z,1002.9
2015-11-18T12:22:10.284Z,1003.3
2015-11-18T12:23:10.207Z,1003.3
2015-11-18T12:24:10.180Z,1002.8
2015-11-18T12:25:10.104Z,1003.2
2015-11-18T12:26:10.045Z,1002.3
2015-11-18T12:27:10.234Z,1003.4
2015-11-18T12:28:09.940Z,1002.4
2015-11-18T12:29:09.990Z,1002.5
2015-11-18T12:30:09.852Z,1002.7
2015-11-18T12:31:09.792Z,1002.4
2015-11-18T12:32:09.733Z,1002.5
2015-11-18T12:33:09.689Z,1003.4
2015-11-18T12:34:09.645Z,1003.4
2015-11-18T12:35:09.585Z,1003.5
2015-11-18T12:36:09.526Z,1003.4
2015-11-18T12:37:08.731Z,1002.4
2015-11-18T12:38:09.437Z,1003.5
2015-11-18T12:39:09.377Z,1003.3
2015-11-18T12:40:09.333Z,1002.4
2015-11-18T12:41:09.257Z,1003.2
2015-11-18T12:42:09.214Z,1002.6
2015-11-18T12:43:09.153Z,1002.8
2015-11-18T12:44:09.110Z,1003.4
2015-11-18T12:45:09.081Z,1003.5
2015-11-18T12:46:09.006Z,1003.5
2015-11-18T12:47:08.962Z,1003.7
2015-11-18T12:48:08.902Z,1003.6
2015-11-18T12:49:08.842Z,1003.5